sensor_id;sensor_type;location;lat;lon;timestamp;P1;durP1;ratioP1;P2;durP2;ratioP2
67640;SDS011;54434;50.096;20.082;2024-03-06T00:03:14;46.40;;;19.40;;
67640;SDS011;54434;50.096;20.082;2024-03-06T00:06:08;53.10;;;22.60;;
67640;SDS011;54434;50.096;20.082;2024-03-06T00:09:02;51.90;;;21.40;;
67640;SDS011;54434;50.096;20.082;2024-03-06T00:11:57;47.50;;;20.00;;
67640;SDS011;54434;50.096;20.082;2024-03-06T00:14:52;49.80;;;21.70;;
67640;SDS011;54434;50.096;20.082;2024-03-06T00:17:45;54.00;;;22.30;;
67640;SDS011;54434;50.096;20.082;2024-03-06T00:20:40;49.90;;;20.90;;
67640;SDS011;54434;50.096;20.082;2024-03-06T00:23:35;50.50;;;21.30;;
67640;SDS011;54434;50.096;20.082;2024-03-06T00:26:28;48.50;;;21.90;;
67640;SDS011;54434;50.096;20.082;2024-03-06T00:29:22;49.40;;;20.90;;
67640;SDS011;54434;50.096;20.082;2024-03-06T00:32:18;48.40;;;21.50;;
67640;SDS011;54434;50.096;20.082;2024-03-06T00:35:11;46.40;;;20.40;;
67640;SDS011;54434;50.096;20.082;2024-03-06T00:38:05;46.20;;;20.40;;
67640;SDS011;54434;50.096;20.082;2024-03-06T00:40:59;43.70;;;20.20;;
67640;SDS011;54434;50.096;20.082;2024-03-06T00:43:56;44.60;;;19.80;;
67640;SDS011;54434;50.096;20.082;2024-03-06T00:46:52;45.40;;;20.10;;
67640;SDS011;54434;50.096;20.082;2024-03-06T00:49:46;47.70;;;20.70;;
67640;SDS011;54434;50.096;20.082;2024-03-06T00:52:39;49.90;;;22.00;;
67640;SDS011;54434;50.096;20.082;2024-03-06T00:55:33;45.00;;;20.40;;
67640;SDS011;54434;50.096;20.082;2024-03-06T00:58:27;48.00;;;19.80;;
67640;SDS011;54434;50.096;20.082;2024-03-06T01:01:22;43.70;;;17.60;;
67640;SDS011;54434;50.096;20.082;2024-03-06T01:04:23;41.60;;;18.50;;
67640;SDS011;54434;50.096;20.082;2024-03-06T01:07:18;42.50;;;18.00;;
67640;SDS011;54434;50.096;20.082;2024-03-06T01:10:12;43.70;;;18.60;;
67640;SDS011;54434;50.096;20.082;2024-03-06T01:13:06;40.50;;;16.80;;
67640;SDS011;54434;50.096;20.082;2024-03-06T01:16:01;38.20;;;16.60;;
67640;SDS011;54434;50.096;20.082;2024-03-06T01:18:55;39.70;;;16.30;;
67640;SDS011;54434;50.096;20.082;2024-03-06T01:21:48;44.90;;;17.80;;
67640;SDS011;54434;50.096;20.082;2024-03-06T01:24:43;35.70;;;15.90;;
67640;SDS011;54434;50.096;20.082;2024-03-06T01:27:39;40.60;;;17.20;;
67640;SDS011;54434;50.096;20.082;2024-03-06T01:30:34;41.70;;;15.90;;
67640;SDS011;54434;50.096;20.082;2024-03-06T01:33:34;36.30;;;16.10;;
67640;SDS011;54434;50.096;20.082;2024-03-06T01:36:29;37.60;;;15.60;;
67640;SDS011;54434;50.096;20.082;2024-03-06T01:39:26;38.30;;;16.20;;
67640;SDS011;54434;50.096;20.082;2024-03-06T01:42:22;36.70;;;15.20;;
67640;SDS011;54434;50.096;20.082;2024-03-06T01:45:16;39.50;;;15.60;;
67640;SDS011;54434;50.096;20.082;2024-03-06T01:48:11;51.60;;;18.10;;
67640;SDS011;54434;50.096;20.082;2024-03-06T01:51:09;45.60;;;17.50;;
67640;SDS011;54434;50.096;20.082;2024-03-06T01:54:04;37.80;;;15.90;;
67640;SDS011;54434;50.096;20.082;2024-03-06T01:56:59;43.20;;;17.00;;
67640;SDS011;54434;50.096;20.082;2024-03-06T01:59:55;39.30;;;16.40;;
67640;SDS011;54434;50.096;20.082;2024-03-06T02:02:58;40.10;;;16.80;;
67640;SDS011;54434;50.096;20.082;2024-03-06T02:06:35;40.60;;;14.70;;
67640;SDS011;54434;50.096;20.082;2024-03-06T02:09:30;40.50;;;16.20;;
67640;SDS011;54434;50.096;20.082;2024-03-06T02:12:24;40.00;;;16.00;;
67640;SDS011;54434;50.096;20.082;2024-03-06T02:15:18;31.40;;;14.20;;
67640;SDS011;54434;50.096;20.082;2024-03-06T02:18:13;32.80;;;15.30;;
67640;SDS011;54434;50.096;20.082;2024-03-06T02:21:07;31.10;;;14.60;;
67640;SDS011;54434;50.096;20.082;2024-03-06T02:24:07;32.70;;;15.10;;
67640;SDS011;54434;50.096;20.082;2024-03-06T02:27:03;35.50;;;15.70;;
67640;SDS011;54434;50.096;20.082;2024-03-06T02:29:57;33.20;;;14.60;;
67640;SDS011;54434;50.096;20.082;2024-03-06T02:32:51;31.40;;;14.80;;
67640;SDS011;54434;50.096;20.082;2024-03-06T02:35:45;31.80;;;14.50;;
67640;SDS011;54434;50.096;20.082;2024-03-06T02:38:40;33.10;;;15.30;;
67640;SDS011;54434;50.096;20.082;2024-03-06T02:41:34;32.80;;;15.20;;
67640;SDS011;54434;50.096;20.082;2024-03-06T02:44:28;34.70;;;15.30;;
67640;SDS011;54434;50.096;20.082;2024-03-06T02:47:22;34.80;;;15.90;;
67640;SDS011;54434;50.096;20.082;2024-03-06T02:50:17;33.70;;;14.60;;
67640;SDS011;54434;50.096;20.082;2024-03-06T02:53:11;32.30;;;14.50;;
67640;SDS011;54434;50.096;20.082;2024-03-06T02:56:07;32.00;;;14.40;;
67640;SDS011;54434;50.096;20.082;2024-03-06T02:59:07;35.10;;;14.30;;
67640;SDS011;54434;50.096;20.082;2024-03-06T03:02:01;37.00;;;16.10;;
67640;SDS011;54434;50.096;20.082;2024-03-06T03:04:55;36.30;;;15.70;;
67640;SDS011;54434;50.096;20.082;2024-03-06T03:07:49;44.40;;;16.00;;
67640;SDS011;54434;50.096;20.082;2024-03-06T03:10:44;39.70;;;15.80;;
67640;SDS011;54434;50.096;20.082;2024-03-06T03:13:38;39.80;;;16.70;;
67640;SDS011;54434;50.096;20.082;2024-03-06T03:16:32;36.90;;;16.10;;
67640;SDS011;54434;50.096;20.082;2024-03-06T03:19:26;39.70;;;17.40;;
67640;SDS011;54434;50.096;20.082;2024-03-06T03:22:23;45.10;;;17.00;;
67640;SDS011;54434;50.096;20.082;2024-03-06T03:25:17;46.50;;;18.00;;
67640;SDS011;54434;50.096;20.082;2024-03-06T03:28:13;44.80;;;18.10;;
67640;SDS011;54434;50.096;20.082;2024-03-06T03:31:08;42.50;;;17.10;;
67640;SDS011;54434;50.096;20.082;2024-03-06T03:34:04;44.80;;;18.90;;
67640;SDS011;54434;50.096;20.082;2024-03-06T03:37:04;41.20;;;17.10;;
67640;SDS011;54434;50.096;20.082;2024-03-06T03:40:14;46.70;;;19.70;;
67640;SDS011;54434;50.096;20.082;2024-03-06T03:43:09;48.40;;;19.30;;
67640;SDS011;54434;50.096;20.082;2024-03-06T03:46:02;48.30;;;19.90;;
67640;SDS011;54434;50.096;20.082;2024-03-06T03:48:57;43.20;;;18.60;;
67640;SDS011;54434;50.096;20.082;2024-03-06T03:51:51;39.70;;;17.00;;
67640;SDS011;54434;50.096;20.082;2024-03-06T03:54:45;38.80;;;16.50;;
67640;SDS011;54434;50.096;20.082;2024-03-06T03:57:39;36.50;;;16.80;;
67640;SDS011;54434;50.096;20.082;2024-03-06T04:00:33;37.30;;;16.90;;
67640;SDS011;54434;50.096;20.082;2024-03-06T04:03:30;41.10;;;16.70;;
67640;SDS011;54434;50.096;20.082;2024-03-06T04:06:24;42.10;;;18.30;;
67640;SDS011;54434;50.096;20.082;2024-03-06T04:09:21;44.70;;;18.60;;
67640;SDS011;54434;50.096;20.082;2024-03-06T04:12:15;61.80;;;25.50;;
67640;SDS011;54434;50.096;20.082;2024-03-06T04:15:12;47.40;;;20.10;;
67640;SDS011;54434;50.096;20.082;2024-03-06T04:18:06;41.80;;;19.50;;
67640;SDS011;54434;50.096;20.082;2024-03-06T04:21:01;40.20;;;17.40;;
67640;SDS011;54434;50.096;20.082;2024-03-06T04:23:57;36.80;;;16.70;;
67640;SDS011;54434;50.096;20.082;2024-03-06T04:26:50;35.80;;;16.30;;
67640;SDS011;54434;50.096;20.082;2024-03-06T04:29:44;60.50;;;26.80;;
67640;SDS011;54434;50.096;20.082;2024-03-06T04:32:38;43.50;;;19.60;;
67640;SDS011;54434;50.096;20.082;2024-03-06T04:35:32;39.90;;;16.40;;
67640;SDS011;54434;50.096;20.082;2024-03-06T04:38:27;36.40;;;15.90;;
67640;SDS011;54434;50.096;20.082;2024-03-06T04:41:21;37.40;;;17.10;;
67640;SDS011;54434;50.096;20.082;2024-03-06T04:44:16;30.70;;;14.90;;
67640;SDS011;54434;50.096;20.082;2024-03-06T04:47:10;31.00;;;15.10;;
67640;SDS011;54434;50.096;20.082;2024-03-06T04:50:07;30.80;;;14.70;;
67640;SDS011;54434;50.096;20.082;2024-03-06T04:53:04;34.00;;;15.80;;
67640;SDS011;54434;50.096;20.082;2024-03-06T04:55:58;34.60;;;15.70;;
67640;SDS011;54434;50.096;20.082;2024-03-06T04:58:54;35.40;;;15.40;;
67640;SDS011;54434;50.096;20.082;2024-03-06T05:01:53;36.60;;;15.20;;
67640;SDS011;54434;50.096;20.082;2024-03-06T05:04:47;38.90;;;16.70;;
67640;SDS011;54434;50.096;20.082;2024-03-06T05:07:59;40.90;;;16.90;;
67640;SDS011;54434;50.096;20.082;2024-03-06T05:11:11;39.40;;;17.50;;
67640;SDS011;54434;50.096;20.082;2024-03-06T05:14:22;40.40;;;17.70;;
67640;SDS011;54434;50.096;20.082;2024-03-06T05:17:34;36.30;;;15.00;;
67640;SDS011;54434;50.096;20.082;2024-03-06T05:20:46;34.60;;;15.60;;
67640;SDS011;54434;50.096;20.082;2024-03-06T05:23:58;38.00;;;15.80;;
67640;SDS011;54434;50.096;20.082;2024-03-06T05:27:12;37.10;;;14.90;;
67640;SDS011;54434;50.096;20.082;2024-03-06T05:30:25;36.60;;;15.60;;
67640;SDS011;54434;50.096;20.082;2024-03-06T05:33:36;32.00;;;14.50;;
67640;SDS011;54434;50.096;20.082;2024-03-06T05:36:54;33.30;;;15.00;;
67640;SDS011;54434;50.096;20.082;2024-03-06T05:40:07;36.80;;;15.90;;
67640;SDS011;54434;50.096;20.082;2024-03-06T05:43:20;35.10;;;16.10;;
67640;SDS011;54434;50.096;20.082;2024-03-06T05:46:32;35.70;;;15.90;;
67640;SDS011;54434;50.096;20.082;2024-03-06T05:49:44;35.20;;;16.10;;
67640;SDS011;54434;50.096;20.082;2024-03-06T05:52:56;31.90;;;12.90;;
67640;SDS011;54434;50.096;20.082;2024-03-06T05:59:19;36.50;;;14.40;;
67640;SDS011;54434;50.096;20.082;2024-03-06T06:02:15;33.70;;;14.90;;
67640;SDS011;54434;50.096;20.082;2024-03-06T06:05:10;40.10;;;16.20;;
67640;SDS011;54434;50.096;20.082;2024-03-06T06:08:13;30.90;;;15.10;;
67640;SDS011;54434;50.096;20.082;2024-03-06T06:11:07;34.20;;;15.00;;
67640;SDS011;54434;50.096;20.082;2024-03-06T06:14:02;32.80;;;15.10;;
67640;SDS011;54434;50.096;20.082;2024-03-06T06:16:57;36.10;;;15.30;;
67640;SDS011;54434;50.096;20.082;2024-03-06T06:19:51;36.90;;;15.80;;
67640;SDS011;54434;50.096;20.082;2024-03-06T06:22:45;32.60;;;15.40;;
67640;SDS011;54434;50.096;20.082;2024-03-06T06:25:39;44.00;;;15.70;;
67640;SDS011;54434;50.096;20.082;2024-03-06T06:28:33;36.30;;;15.50;;
67640;SDS011;54434;50.096;20.082;2024-03-06T06:31:27;42.00;;;15.40;;
67640;SDS011;54434;50.096;20.082;2024-03-06T06:34:21;40.40;;;17.20;;
67640;SDS011;54434;50.096;20.082;2024-03-06T06:37:18;48.90;;;16.70;;
67640;SDS011;54434;50.096;20.082;2024-03-06T06:40:14;45.60;;;17.30;;
67640;SDS011;54434;50.096;20.082;2024-03-06T06:43:08;38.50;;;16.70;;
67640;SDS011;54434;50.096;20.082;2024-03-06T06:46:03;37.90;;;15.60;;
67640;SDS011;54434;50.096;20.082;2024-03-06T06:48:57;44.70;;;17.90;;
67640;SDS011;54434;50.096;20.082;2024-03-06T06:51:52;38.10;;;17.10;;
67640;SDS011;54434;50.096;20.082;2024-03-06T06:54:46;43.10;;;16.90;;
67640;SDS011;54434;50.096;20.082;2024-03-06T06:57:42;42.60;;;16.60;;
67640;SDS011;54434;50.096;20.082;2024-03-06T07:00:37;37.00;;;16.80;;
67640;SDS011;54434;50.096;20.082;2024-03-06T07:03:32;46.80;;;16.40;;
67640;SDS011;54434;50.096;20.082;2024-03-06T07:06:26;36.80;;;15.00;;
67640;SDS011;54434;50.096;20.082;2024-03-06T07:09:20;33.40;;;16.00;;
67640;SDS011;54434;50.096;20.082;2024-03-06T07:12:16;32.80;;;15.40;;
67640;SDS011;54434;50.096;20.082;2024-03-06T07:15:10;31.90;;;15.20;;
67640;SDS011;54434;50.096;20.082;2024-03-06T07:18:05;32.80;;;15.70;;
67640;SDS011;54434;50.096;20.082;2024-03-06T07:20:59;35.00;;;14.60;;
67640;SDS011;54434;50.096;20.082;2024-03-06T07:23:59;39.50;;;16.10;;
67640;SDS011;54434;50.096;20.082;2024-03-06T07:26:53;33.30;;;16.00;;
67640;SDS011;54434;50.096;20.082;2024-03-06T07:29:47;32.90;;;14.90;;
67640;SDS011;54434;50.096;20.082;2024-03-06T07:32:41;33.20;;;14.80;;
67640;SDS011;54434;50.096;20.082;2024-03-06T07:35:35;26.20;;;14.40;;
67640;SDS011;54434;50.096;20.082;2024-03-06T07:38:31;28.80;;;15.00;;
67640;SDS011;54434;50.096;20.082;2024-03-06T07:41:25;32.80;;;16.30;;
67640;SDS011;54434;50.096;20.082;2024-03-06T07:44:19;30.90;;;15.10;;
67640;SDS011;54434;50.096;20.082;2024-03-06T07:47:13;30.30;;;15.40;;
67640;SDS011;54434;50.096;20.082;2024-03-06T07:50:09;31.60;;;15.50;;
67640;SDS011;54434;50.096;20.082;2024-03-06T07:53:10;29.20;;;15.60;;
67640;SDS011;54434;50.096;20.082;2024-03-06T07:56:02;30.60;;;15.10;;
67640;SDS011;54434;50.096;20.082;2024-03-06T07:58:57;29.90;;;14.40;;
67640;SDS011;54434;50.096;20.082;2024-03-06T08:01:50;34.80;;;15.80;;
67640;SDS011;54434;50.096;20.082;2024-03-06T08:04:45;29.90;;;15.20;;
67640;SDS011;54434;50.096;20.082;2024-03-06T08:07:38;32.00;;;14.90;;
67640;SDS011;54434;50.096;20.082;2024-03-06T08:10:35;29.90;;;15.00;;
67640;SDS011;54434;50.096;20.082;2024-03-06T08:13:28;29.60;;;15.50;;
67640;SDS011;54434;50.096;20.082;2024-03-06T08:16:24;30.10;;;14.20;;
67640;SDS011;54434;50.096;20.082;2024-03-06T08:19:16;31.70;;;14.80;;
67640;SDS011;54434;50.096;20.082;2024-03-06T08:22:10;32.30;;;15.90;;
67640;SDS011;54434;50.096;20.082;2024-03-06T08:25:08;28.50;;;14.20;;
67640;SDS011;54434;50.096;20.082;2024-03-06T08:28:02;33.70;;;15.30;;
67640;SDS011;54434;50.096;20.082;2024-03-06T08:30:55;30.20;;;15.30;;
67640;SDS011;54434;50.096;20.082;2024-03-06T08:33:48;30.70;;;16.60;;
67640;SDS011;54434;50.096;20.082;2024-03-06T08:36:42;30.90;;;15.40;;
67640;SDS011;54434;50.096;20.082;2024-03-06T08:39:35;30.00;;;16.10;;
67640;SDS011;54434;50.096;20.082;2024-03-06T08:42:28;30.20;;;14.10;;
67640;SDS011;54434;50.096;20.082;2024-03-06T08:45:22;31.90;;;15.70;;
67640;SDS011;54434;50.096;20.082;2024-03-06T08:48:16;31.50;;;15.90;;
67640;SDS011;54434;50.096;20.082;2024-03-06T08:51:09;29.80;;;15.20;;
67640;SDS011;54434;50.096;20.082;2024-03-06T08:54:02;26.00;;;14.80;;
67640;SDS011;54434;50.096;20.082;2024-03-06T08:56:55;31.10;;;14.90;;
67640;SDS011;54434;50.096;20.082;2024-03-06T08:59:49;30.50;;;15.70;;
67640;SDS011;54434;50.096;20.082;2024-03-06T09:02:44;30.20;;;15.40;;
67640;SDS011;54434;50.096;20.082;2024-03-06T09:05:37;31.60;;;15.10;;
67640;SDS011;54434;50.096;20.082;2024-03-06T09:08:31;29.70;;;15.40;;
67640;SDS011;54434;50.096;20.082;2024-03-06T09:11:24;33.60;;;15.90;;
67640;SDS011;54434;50.096;20.082;2024-03-06T09:14:17;27.70;;;15.00;;
67640;SDS011;54434;50.096;20.082;2024-03-06T09:17:10;32.80;;;15.70;;
67640;SDS011;54434;50.096;20.082;2024-03-06T09:20:06;33.70;;;16.10;;
67640;SDS011;54434;50.096;20.082;2024-03-06T09:23:02;31.40;;;15.50;;
67640;SDS011;54434;50.096;20.082;2024-03-06T09:25:55;29.90;;;15.50;;
67640;SDS011;54434;50.096;20.082;2024-03-06T09:28:48;28.50;;;15.60;;
67640;SDS011;54434;50.096;20.082;2024-03-06T09:31:42;31.50;;;16.70;;
67640;SDS011;54434;50.096;20.082;2024-03-06T09:34:35;32.80;;;16.30;;
67640;SDS011;54434;50.096;20.082;2024-03-06T09:37:28;31.40;;;15.90;;
67640;SDS011;54434;50.096;20.082;2024-03-06T09:40:24;32.20;;;16.00;;
67640;SDS011;54434;50.096;20.082;2024-03-06T09:43:19;31.60;;;15.70;;
67640;SDS011;54434;50.096;20.082;2024-03-06T09:46:11;29.50;;;16.00;;
67640;SDS011;54434;50.096;20.082;2024-03-06T09:49:07;30.90;;;15.70;;
67640;SDS011;54434;50.096;20.082;2024-03-06T09:52:00;32.60;;;16.10;;
67640;SDS011;54434;50.096;20.082;2024-03-06T09:54:55;30.50;;;14.90;;
67640;SDS011;54434;50.096;20.082;2024-03-06T09:57:49;30.00;;;15.80;;
67640;SDS011;54434;50.096;20.082;2024-03-06T10:00:41;28.90;;;14.70;;
67640;SDS011;54434;50.096;20.082;2024-03-06T10:03:37;30.90;;;16.00;;
67640;SDS011;54434;50.096;20.082;2024-03-06T10:06:31;29.60;;;15.20;;
67640;SDS011;54434;50.096;20.082;2024-03-06T10:09:24;31.30;;;15.30;;
67640;SDS011;54434;50.096;20.082;2024-03-06T10:12:20;29.70;;;14.90;;
67640;SDS011;54434;50.096;20.082;2024-03-06T10:15:13;31.50;;;15.50;;
67640;SDS011;54434;50.096;20.082;2024-03-06T10:18:14;28.40;;;15.80;;
67640;SDS011;54434;50.096;20.082;2024-03-06T10:21:32;27.50;;;15.40;;
67640;SDS011;54434;50.096;20.082;2024-03-06T10:24:25;30.20;;;15.70;;
67640;SDS011;54434;50.096;20.082;2024-03-06T10:27:18;29.80;;;15.50;;
67640;SDS011;54434;50.096;20.082;2024-03-06T10:30:13;31.10;;;15.60;;
67640;SDS011;54434;50.096;20.082;2024-03-06T10:33:06;33.60;;;16.80;;
67640;SDS011;54434;50.096;20.082;2024-03-06T10:35:59;31.70;;;15.80;;
67640;SDS011;54434;50.096;20.082;2024-03-06T10:38:55;30.20;;;15.70;;
67640;SDS011;54434;50.096;20.082;2024-03-06T10:41:54;28.20;;;15.30;;
67640;SDS011;54434;50.096;20.082;2024-03-06T10:44:51;31.30;;;16.10;;
67640;SDS011;54434;50.096;20.082;2024-03-06T10:47:48;30.20;;;16.40;;
67640;SDS011;54434;50.096;20.082;2024-03-06T10:50:42;30.30;;;15.50;;
67640;SDS011;54434;50.096;20.082;2024-03-06T10:53:36;28.80;;;15.30;;
67640;SDS011;54434;50.096;20.082;2024-03-06T10:56:31;33.40;;;16.80;;
67640;SDS011;54434;50.096;20.082;2024-03-06T10:59:26;30.60;;;15.70;;
67640;SDS011;54434;50.096;20.082;2024-03-06T11:02:20;33.60;;;17.10;;
67640;SDS011;54434;50.096;20.082;2024-03-06T11:05:15;33.50;;;16.60;;
67640;SDS011;54434;50.096;20.082;2024-03-06T11:08:08;37.30;;;16.40;;
67640;SDS011;54434;50.096;20.082;2024-03-06T11:11:22;34.30;;;17.10;;
67640;SDS011;54434;50.096;20.082;2024-03-06T11:14:15;32.50;;;16.30;;
67640;SDS011;54434;50.096;20.082;2024-03-06T11:17:10;37.40;;;16.50;;
67640;SDS011;54434;50.096;20.082;2024-03-06T11:20:18;31.10;;;16.00;;
67640;SDS011;54434;50.096;20.082;2024-03-06T11:23:11;40.30;;;17.40;;
67640;SDS011;54434;50.096;20.082;2024-03-06T11:26:06;31.50;;;16.80;;
67640;SDS011;54434;50.096;20.082;2024-03-06T11:29:00;32.90;;;16.60;;
67640;SDS011;54434;50.096;20.082;2024-03-06T11:32:05;32.30;;;16.20;;
67640;SDS011;54434;50.096;20.082;2024-03-06T11:34:59;30.60;;;16.40;;
67640;SDS011;54434;50.096;20.082;2024-03-06T11:37:55;29.40;;;16.50;;
67640;SDS011;54434;50.096;20.082;2024-03-06T11:40:53;32.10;;;16.70;;
67640;SDS011;54434;50.096;20.082;2024-03-06T11:43:46;31.80;;;16.10;;
67640;SDS011;54434;50.096;20.082;2024-03-06T11:46:44;31.60;;;16.80;;
67640;SDS011;54434;50.096;20.082;2024-03-06T11:49:38;27.60;;;15.50;;
67640;SDS011;54434;50.096;20.082;2024-03-06T11:52:32;35.00;;;18.00;;
67640;SDS011;54434;50.096;20.082;2024-03-06T11:55:24;38.30;;;16.60;;
67640;SDS011;54434;50.096;20.082;2024-03-06T11:58:17;38.50;;;16.80;;
67640;SDS011;54434;50.096;20.082;2024-03-06T12:01:10;34.70;;;16.50;;
67640;SDS011;54434;50.096;20.082;2024-03-06T12:04:04;31.00;;;15.40;;
67640;SDS011;54434;50.096;20.082;2024-03-06T12:06:59;31.90;;;16.40;;
67640;SDS011;54434;50.096;20.082;2024-03-06T12:09:58;31.90;;;15.70;;
67640;SDS011;54434;50.096;20.082;2024-03-06T12:12:52;30.30;;;15.70;;
67640;SDS011;54434;50.096;20.082;2024-03-06T12:15:45;31.20;;;16.30;;
67640;SDS011;54434;50.096;20.082;2024-03-06T12:18:38;35.10;;;16.90;;
67640;SDS011;54434;50.096;20.082;2024-03-06T12:21:32;29.40;;;14.70;;
67640;SDS011;54434;50.096;20.082;2024-03-06T12:24:27;28.80;;;15.60;;
67640;SDS011;54434;50.096;20.082;2024-03-06T12:27:23;30.90;;;15.40;;
67640;SDS011;54434;50.096;20.082;2024-03-06T12:30:19;32.20;;;15.70;;
67640;SDS011;54434;50.096;20.082;2024-03-06T12:33:17;28.20;;;15.10;;
67640;SDS011;54434;50.096;20.082;2024-03-06T12:36:11;28.10;;;15.80;;
67640;SDS011;54434;50.096;20.082;2024-03-06T12:39:05;32.50;;;15.60;;
67640;SDS011;54434;50.096;20.082;2024-03-06T12:42:02;29.10;;;15.10;;
67640;SDS011;54434;50.096;20.082;2024-03-06T12:44:56;25.40;;;13.50;;
67640;SDS011;54434;50.096;20.082;2024-03-06T12:47:48;29.50;;;15.30;;
67640;SDS011;54434;50.096;20.082;2024-03-06T12:50:41;31.60;;;15.30;;
67640;SDS011;54434;50.096;20.082;2024-03-06T12:53:36;26.60;;;14.20;;
67640;SDS011;54434;50.096;20.082;2024-03-06T12:56:30;29.10;;;14.40;;
67640;SDS011;54434;50.096;20.082;2024-03-06T12:59:22;30.90;;;15.10;;
67640;SDS011;54434;50.096;20.082;2024-03-06T13:02:16;23.50;;;13.40;;
67640;SDS011;54434;50.096;20.082;2024-03-06T13:05:08;23.50;;;13.30;;
67640;SDS011;54434;50.096;20.082;2024-03-06T13:08:03;25.70;;;13.60;;
67640;SDS011;54434;50.096;20.082;2024-03-06T13:10:56;27.60;;;13.60;;
67640;SDS011;54434;50.096;20.082;2024-03-06T13:13:49;23.60;;;12.70;;
67640;SDS011;54434;50.096;20.082;2024-03-06T13:16:43;23.50;;;12.20;;
67640;SDS011;54434;50.096;20.082;2024-03-06T13:19:37;22.70;;;13.20;;
67640;SDS011;54434;50.096;20.082;2024-03-06T13:22:29;25.30;;;13.20;;
67640;SDS011;54434;50.096;20.082;2024-03-06T13:25:22;28.30;;;14.50;;
67640;SDS011;54434;50.096;20.082;2024-03-06T13:28:15;27.30;;;14.20;;
67640;SDS011;54434;50.096;20.082;2024-03-06T13:31:09;27.20;;;14.40;;
67640;SDS011;54434;50.096;20.082;2024-03-06T13:34:02;26.70;;;14.00;;
67640;SDS011;54434;50.096;20.082;2024-03-06T13:36:55;30.30;;;15.40;;
67640;SDS011;54434;50.096;20.082;2024-03-06T13:39:48;35.30;;;17.50;;
67640;SDS011;54434;50.096;20.082;2024-03-06T13:42:43;31.80;;;16.10;;
67640;SDS011;54434;50.096;20.082;2024-03-06T13:45:36;28.40;;;15.00;;
67640;SDS011;54434;50.096;20.082;2024-03-06T13:48:33;30.20;;;15.70;;
67640;SDS011;54434;50.096;20.082;2024-03-06T13:51:27;30.40;;;15.20;;
67640;SDS011;54434;50.096;20.082;2024-03-06T13:54:19;30.80;;;15.90;;
67640;SDS011;54434;50.096;20.082;2024-03-06T13:57:12;30.70;;;14.40;;
67640;SDS011;54434;50.096;20.082;2024-03-06T14:00:07;28.00;;;14.50;;
67640;SDS011;54434;50.096;20.082;2024-03-06T14:03:07;25.20;;;13.90;;
67640;SDS011;54434;50.096;20.082;2024-03-06T14:06:01;27.20;;;14.40;;
67640;SDS011;54434;50.096;20.082;2024-03-06T14:08:54;25.80;;;14.10;;
67640;SDS011;54434;50.096;20.082;2024-03-06T14:11:47;26.20;;;13.90;;
67640;SDS011;54434;50.096;20.082;2024-03-06T14:14:40;26.50;;;14.50;;
67640;SDS011;54434;50.096;20.082;2024-03-06T14:17:32;23.80;;;12.80;;
67640;SDS011;54434;50.096;20.082;2024-03-06T14:20:26;27.40;;;13.70;;
67640;SDS011;54434;50.096;20.082;2024-03-06T14:23:19;24.90;;;13.60;;
67640;SDS011;54434;50.096;20.082;2024-03-06T14:26:11;27.90;;;13.80;;
67640;SDS011;54434;50.096;20.082;2024-03-06T14:29:05;27.20;;;13.70;;
67640;SDS011;54434;50.096;20.082;2024-03-06T14:32:00;28.30;;;14.40;;
67640;SDS011;54434;50.096;20.082;2024-03-06T14:34:53;25.40;;;14.10;;
67640;SDS011;54434;50.096;20.082;2024-03-06T14:37:46;26.20;;;14.50;;
67640;SDS011;54434;50.096;20.082;2024-03-06T14:40:39;25.50;;;13.90;;
67640;SDS011;54434;50.096;20.082;2024-03-06T14:43:31;25.90;;;13.20;;
67640;SDS011;54434;50.096;20.082;2024-03-06T14:46:25;28.00;;;15.10;;
67640;SDS011;54434;50.096;20.082;2024-03-06T14:49:19;33.10;;;14.80;;
67640;SDS011;54434;50.096;20.082;2024-03-06T14:52:11;32.00;;;15.20;;
67640;SDS011;54434;50.096;20.082;2024-03-06T14:55:05;29.90;;;15.10;;
67640;SDS011;54434;50.096;20.082;2024-03-06T14:57:59;29.00;;;15.10;;
67640;SDS011;54434;50.096;20.082;2024-03-06T15:00:52;33.10;;;16.60;;
67640;SDS011;54434;50.096;20.082;2024-03-06T15:03:45;33.20;;;15.80;;
67640;SDS011;54434;50.096;20.082;2024-03-06T15:06:38;31.70;;;15.70;;
67640;SDS011;54434;50.096;20.082;2024-03-06T15:09:31;33.00;;;17.20;;
67640;SDS011;54434;50.096;20.082;2024-03-06T15:12:23;35.30;;;17.30;;
67640;SDS011;54434;50.096;20.082;2024-03-06T15:15:16;33.90;;;16.60;;
67640;SDS011;54434;50.096;20.082;2024-03-06T15:18:09;30.20;;;15.80;;
67640;SDS011;54434;50.096;20.082;2024-03-06T15:21:02;34.70;;;17.50;;
67640;SDS011;54434;50.096;20.082;2024-03-06T15:23:55;39.30;;;18.00;;
67640;SDS011;54434;50.096;20.082;2024-03-06T15:26:52;35.10;;;18.10;;
67640;SDS011;54434;50.096;20.082;2024-03-06T15:29:44;35.60;;;17.70;;
67640;SDS011;54434;50.096;20.082;2024-03-06T15:32:37;32.00;;;17.20;;
67640;SDS011;54434;50.096;20.082;2024-03-06T15:35:30;37.10;;;18.50;;
67640;SDS011;54434;50.096;20.082;2024-03-06T15:38:23;34.20;;;18.10;;
67640;SDS011;54434;50.096;20.082;2024-03-06T15:41:16;36.90;;;19.30;;
67640;SDS011;54434;50.096;20.082;2024-03-06T15:44:10;40.30;;;19.80;;
67640;SDS011;54434;50.096;20.082;2024-03-06T15:47:03;35.90;;;17.80;;
67640;SDS011;54434;50.096;20.082;2024-03-06T15:49:59;36.50;;;19.40;;
67640;SDS011;54434;50.096;20.082;2024-03-06T15:52:52;37.60;;;18.00;;
67640;SDS011;54434;50.096;20.082;2024-03-06T15:55:45;61.80;;;30.60;;
67640;SDS011;54434;50.096;20.082;2024-03-06T15:58:37;37.40;;;20.10;;
67640;SDS011;54434;50.096;20.082;2024-03-06T16:01:30;35.10;;;18.80;;
67640;SDS011;54434;50.096;20.082;2024-03-06T16:04:23;40.60;;;20.70;;
67640;SDS011;54434;50.096;20.082;2024-03-06T16:07:16;35.40;;;19.00;;
67640;SDS011;54434;50.096;20.082;2024-03-06T16:10:10;41.70;;;20.60;;
67640;SDS011;54434;50.096;20.082;2024-03-06T16:13:03;36.40;;;19.80;;
67640;SDS011;54434;50.096;20.082;2024-03-06T16:15:56;35.90;;;19.40;;
67640;SDS011;54434;50.096;20.082;2024-03-06T16:18:49;39.50;;;20.40;;
67640;SDS011;54434;50.096;20.082;2024-03-06T16:21:42;41.90;;;20.20;;
67640;SDS011;54434;50.096;20.082;2024-03-06T16:26:51;37.00;;;20.10;;
67640;SDS011;54434;50.096;20.082;2024-03-06T16:29:44;29.20;;;16.00;;
67640;SDS011;54434;50.096;20.082;2024-03-06T16:32:39;31.90;;;18.30;;
67640;SDS011;54434;50.096;20.082;2024-03-06T16:35:32;34.80;;;19.10;;
67640;SDS011;54434;50.096;20.082;2024-03-06T16:38:28;35.20;;;19.30;;
67640;SDS011;54434;50.096;20.082;2024-03-06T16:41:23;28.60;;;16.90;;
67640;SDS011;54434;50.096;20.082;2024-03-06T16:44:16;32.00;;;17.50;;
67640;SDS011;54434;50.096;20.082;2024-03-06T16:47:11;35.90;;;20.50;;
67640;SDS011;54434;50.096;20.082;2024-03-06T16:50:05;27.50;;;15.60;;
67640;SDS011;54434;50.096;20.082;2024-03-06T16:52:59;32.70;;;18.70;;
67640;SDS011;54434;50.096;20.082;2024-03-06T16:55:56;35.50;;;18.90;;
67640;SDS011;54434;50.096;20.082;2024-03-06T16:58:50;38.00;;;21.50;;